Time;durP1;ratioP1;P1;durP2;ratioP2;P2;SDS_P1;SDS_P2;PMS_P1;PMS_P2;Temp;Humidity;BMP_temperature;BMP_pressure;BME280_temperature;BME280_humidity;BME280_pressure;Samples;Min_cycle;Max_cycle;Signal;HPM_P1;HPM_P2
2022/01/07 00:00:46;;;;;;;10.45;5.13;;;3.80;99.90;;;;;;2110405;67;20203;-75
2022/01/07 00:03:28;;;;;;;12.07;4.43;;;3.70;99.90;;;;;;2121805;67;20341;-74
2022/01/07 00:06:11;;;;;;;8.10;4.63;;;3.80;99.90;;;;;;2117126;67;20272;-75
2022/01/07 00:08:53;;;;;;;10.95;5.32;;;3.80;99.90;;;;;;2117710;67;20697;-76
2022/01/07 00:11:36;;;;;;;12.35;5.50;;;3.70;99.90;;;;;;2146552;66;20265;-74
2022/01/07 00:14:17;;;;;;;8.70;4.82;;;3.80;99.90;;;;;;2146405;66;20158;-76
2022/01/07 00:16:59;;;;;;;13.95;4.93;;;3.80;99.90;;;;;;2148180;66;20276;-75
2022/01/07 00:19:42;;;;;;;10.32;5.35;;;3.70;99.90;;;;;;2150379;66;20215;-74
2022/01/07 00:22:28;;;;;;;12.30;5.10;;;3.70;99.90;;;;;;2160066;66;20389;-74
2022/01/07 00:25:12;;;;;;;11.38;5.20;;;3.60;99.90;;;;;;2160534;66;20247;-73
2022/01/07 00:27:55;;;;;;;9.50;5.22;;;3.60;99.90;;;;;;2175108;65;20281;-74
2022/01/07 00:30:40;;;;;;;9.98;5.50;;;3.50;99.90;;;;;;2153538;66;20289;-77
2022/01/07 00:33:21;;;;;;;9.30;5.28;;;3.50;99.90;;;;;;2147353;66;20754;-75
2022/01/07 00:36:06;;;;;;;8.43;5.00;;;3.50;99.90;;;;;;2133618;67;20301;-75
2022/01/07 00:38:48;;;;;;;16.08;5.82;;;3.30;99.90;;;;;;2140965;66;20403;-74
2022/01/07 00:41:30;;;;;;;13.30;6.00;;;3.20;99.90;;;;;;2147445;66;20286;-75
2022/01/07 00:44:12;;;;;;;10.40;5.53;;;4.20;99.90;;;;;;2140887;66;20845;-74
2022/01/07 00:46:55;;;;;;;12.88;6.38;;;3.10;99.90;;;;;;2142843;66;20320;-72
2022/01/07 00:49:40;;;;;;;12.45;6.22;;;3.00;99.90;;;;;;2134755;66;20270;-74
2022/01/07 00:52:23;;;;;;;12.27;6.00;;;2.90;99.90;;;;;;2131897;67;20254;-71
2022/01/07 00:55:09;;;;;;;14.60;6.75;;;3.30;99.90;;;;;;2132258;67;20278;-72
2022/01/07 00:57:51;;;;;;;15.45;7.18;;;2.80;99.90;;;;;;2127355;67;20250;-73
2022/01/07 01:00:35;;;;;;;11.65;5.88;;;2.70;99.90;;;;;;2130506;67;20297;-72
2022/01/07 01:03:19;;;;;;;15.20;6.28;;;2.70;99.90;;;;;;2109976;67;20307;-73
2022/01/07 01:06:02;;;;;;;13.73;6.95;;;2.60;99.90;;;;;;2118090;67;20310;-73
2022/01/07 01:08:47;;;;;;;12.50;7.82;;;2.60;99.90;;;;;;2125555;67;20164;-71
2022/01/07 01:11:28;;;;;;;12.45;7.57;;;2.50;99.90;;;;;;2132321;67;20348;-70
2022/01/07 01:14:10;;;;;;;13.70;6.82;;;2.50;99.90;;;;;;2122492;67;20293;-73
2022/01/07 01:16:52;;;;;;;13.48;7.97;;;2.50;99.90;;;;;;2118001;67;20295;-71
2022/01/07 01:19:34;;;;;;;14.00;6.70;;;2.40;99.90;;;;;;2114947;67;20857;-71
2022/01/07 01:22:16;;;;;;;14.20;7.40;;;2.40;99.90;;;;;;2134093;67;20348;-71
2022/01/07 01:25:02;;;;;;;19.52;9.27;;;2.40;99.90;;;;;;2126791;67;20272;-72
2022/01/07 01:27:47;;;;;;;14.98;8.27;;;2.60;99.90;;;;;;2118019;67;20641;-72
2022/01/07 01:30:31;;;;;;;20.90;9.70;;;2.30;99.90;;;;;;2096495;67;20274;-73
2022/01/07 01:33:13;;;;;;;19.73;8.90;;;2.30;99.90;;;;;;2110875;67;20297;-72
2022/01/07 01:35:56;;;;;;;13.90;7.47;;;2.60;99.90;;;;;;2121479;67;20176;-73
2022/01/07 01:38:43;;;;;;;14.52;7.32;;;2.30;99.90;;;;;;2132349;67;20357;-71
2022/01/07 01:41:27;;;;;;;14.18;7.75;;;2.30;99.90;;;;;;2132234;67;20341;-70
2022/01/07 01:44:10;;;;;;;17.58;9.60;;;2.30;99.90;;;;;;2132463;67;20179;-70
2022/01/07 01:46:52;;;;;;;16.80;8.35;;;2.10;99.90;;;;;;2117430;67;20451;-69
2022/01/07 01:49:34;;;;;;;22.00;9.00;;;2.30;99.90;;;;;;2111849;67;20400;-70
2022/01/07 01:52:15;;;;;;;18.10;8.95;;;2.30;99.90;;;;;;2118326;67;20289;-70
2022/01/07 01:54:58;;;;;;;13.48;8.43;;;2.60;99.90;;;;;;2100142;67;20225;-71
2022/01/07 01:57:40;;;;;;;14.82;8.55;;;2.40;99.90;;;;;;2119130;67;20765;-71
2022/01/07 02:00:23;;;;;;;16.63;9.02;;;2.30;99.90;;;;;;2126309;67;20325;-71
2022/01/07 02:03:05;;;;;;;14.73;8.93;;;2.30;99.90;;;;;;2118580;67;20209;-72
2022/01/07 02:05:47;;;;;;;23.98;9.55;;;2.20;99.90;;;;;;2117795;67;20236;-72
2022/01/07 02:08:30;;;;;;;16.27;9.48;;;2.20;99.90;;;;;;2117630;67;20201;-71
2022/01/07 02:11:11;;;;;;;18.02;8.40;;;2.30;99.90;;;;;;2121962;67;20351;-72
2022/01/07 02:14:00;;;;;;;16.85;9.52;;;2.20;99.90;;;;;;2118713;67;20218;-73
2022/01/07 02:16:46;;;;;;;17.05;8.90;;;2.20;99.90;;;;;;2125416;67;20942;-74
2022/01/07 02:19:34;;;;;;;16.58;10.05;;;2.20;99.90;;;;;;2135288;66;20336;-71
2022/01/07 02:22:20;;;;;;;22.70;10.57;;;2.30;99.90;;;;;;2144702;66;20369;-70
2022/01/07 02:25:01;;;;;;;16.90;11.13;;;2.20;99.90;;;;;;2146745;66;20580;-71
2022/01/07 02:27:46;;;;;;;18.88;9.68;;;2.20;99.90;;;;;;2133283;67;20255;-72
2022/01/07 02:30:32;;;;;;;14.48;9.20;;;2.20;99.90;;;;;;2137767;66;20812;-72
2022/01/07 02:33:14;;;;;;;19.88;10.50;;;2.20;99.90;;;;;;2154741;66;20273;-72
2022/01/07 02:35:55;;;;;;;19.73;11.35;;;2.20;99.90;;;;;;2149229;66;20810;-73
2022/01/07 02:38:37;;;;;;;16.00;10.57;;;2.20;99.90;;;;;;2148383;66;20782;-71
2022/01/07 02:41:23;;;;;;;17.13;10.00;;;2.30;99.90;;;;;;2149769;66;20174;-72
2022/01/07 02:44:08;;;;;;;15.38;10.23;;;2.30;99.90;;;;;;2129774;67;20245;-72
2022/01/07 02:46:50;;;;;;;19.27;11.10;;;2.70;99.90;;;;;;2128023;67;20396;-70
2022/01/07 02:49:31;;;;;;;15.57;9.70;;;2.60;99.90;;;;;;2141864;66;20400;-72
2022/01/07 02:52:14;;;;;;;15.40;10.30;;;2.20;99.90;;;;;;2143653;66;20371;-71
2022/01/07 02:54:59;;;;;;;15.07;9.85;;;2.30;99.90;;;;;;2141672;66;20237;-73
2022/01/07 02:57:41;;;;;;;19.20;10.57;;;2.30;99.90;;;;;;2131049;67;20388;-72
2022/01/07 03:00:25;;;;;;;16.10;10.27;;;2.30;99.90;;;;;;2117424;67;20572;-71
2022/01/07 03:03:07;;;;;;;18.60;11.27;;;2.30;99.90;;;;;;2110232;67;20900;-72
2022/01/07 03:05:50;;;;;;;17.63;9.85;;;2.30;99.90;;;;;;2109871;67;20181;-71
2022/01/07 03:08:31;;;;;;;17.58;10.60;;;2.20;99.90;;;;;;2118105;67;20199;-71
2022/01/07 03:11:13;;;;;;;17.80;10.38;;;2.20;99.90;;;;;;2127619;67;20871;-73
2022/01/07 03:13:56;;;;;;;15.93;10.63;;;2.30;99.90;;;;;;2118791;67;20217;-73
2022/01/07 03:16:39;;;;;;;16.27;10.57;;;2.20;99.90;;;;;;2096401;68;20372;-73
2022/01/07 03:19:22;;;;;;;19.30;9.95;;;2.20;99.90;;;;;;2108265;67;20185;-71
2022/01/07 03:22:05;;;;;;;19.58;11.45;;;2.30;99.90;;;;;;2110179;67;20301;-73
2022/01/07 03:24:49;;;;;;;17.60;10.55;;;2.20;99.90;;;;;;2103343;68;20194;-72
2022/01/07 03:27:32;;;;;;;14.20;10.73;;;2.20;99.90;;;;;;2109773;67;20281;-73
2022/01/07 03:30:16;;;;;;;17.33;10.75;;;2.20;99.90;;;;;;2115514;67;20267;-73
2022/01/07 03:32:58;;;;;;;12.77;9.70;;;2.20;99.90;;;;;;2119890;67;20883;-72
2022/01/07 03:35:45;;;;;;;16.67;11.80;;;2.20;99.90;;;;;;2110504;67;20501;-72
2022/01/07 03:38:31;;;;;;;18.00;11.52;;;2.20;99.90;;;;;;2103265;67;20206;-74
2022/01/07 03:41:16;;;;;;;13.40;10.57;;;2.20;99.90;;;;;;2107658;68;20201;-74
2022/01/07 03:43:57;;;;;;;14.90;10.48;;;2.30;99.90;;;;;;2099554;67;20815;-72
2022/01/07 03:46:41;;;;;;;14.90;11.63;;;2.20;99.90;;;;;;2110785;67;20705;-73
2022/01/07 03:49:23;;;;;;;17.75;12.10;;;2.20;99.90;;;;;;2110872;67;20240;-72
2022/01/07 03:52:06;;;;;;;18.75;12.13;;;2.30;99.90;;;;;;2111415;67;20178;-73
2022/01/07 03:54:54;;;;;;;15.20;11.70;;;2.30;99.90;;;;;;2131051;67;20270;-72
2022/01/07 03:57:32;;;;;;;20.80;11.45;;;2.30;99.90;;;;;;2139168;67;20256;-72
2022/01/07 04:00:42;;;;;;;20.55;12.18;;;2.30;99.90;;;;;;2130447;67;20195;-72
2022/01/07 04:03:18;;;;;;;;;;;1.90;99.90;;;;;;2133726;67;20207;-71
2022/01/07 04:05:54;;;;;;;20.80;12.63;;;2.30;99.90;;;;;;2132816;67;20287;-72
2022/01/07 04:08:31;;;;;;;18.80;12.68;;;2.30;99.90;;;;;;2138568;66;20189;-72
2022/01/07 04:11:08;;;;;;;14.27;11.60;;;2.30;99.90;;;;;;2152316;66;20237;-72
2022/01/07 04:13:44;;;;;;;13.77;11.48;;;2.30;99.90;;;;;;2144958;66;20329;-72
2022/01/07 04:16:36;;;;;;;20.05;13.15;;;2.30;99.90;;;;;;2152172;66;20213;-73
2022/01/07 04:19:29;;;;;;;20.02;12.40;;;2.30;99.90;;;;;;2171455;65;20345;-71
2022/01/07 04:22:05;;;;;;;17.10;12.63;;;2.30;99.90;;;;;;2173028;65;20227;-71
2022/01/07 04:24:46;;;;;;;17.70;11.77;;;2.30;99.90;;;;;;2177993;65;20198;-73
2022/01/07 04:27:26;;;;;;;14.23;10.82;;;2.30;99.90;;;;;;2202750;65;20218;-72
2022/01/07 04:30:03;;;;;;;21.27;12.38;;;2.40;99.90;;;;;;2205017;65;20337;-69
2022/01/07 04:32:55;;;;;;;15.88;11.80;;;2.40;99.90;;;;;;2189941;65;20230;-70
2022/01/07 04:35:48;;;;;;;15.75;11.20;;;2.40;99.90;;;;;;2189082;65;20204;-74
2022/01/07 04:38:41;;;;;;;13.90;10.18;;;2.40;99.90;;;;;;2187206;65;20185;-70
2022/01/07 04:41:32;;;;;;;18.83;11.18;;;3.10;99.90;;;;;;2176515;65;20332;-72
2022/01/07 04:44:13;;;;;;;18.33;11.35;;;2.40;99.90;;;;;;2175818;65;20187;-71
2022/01/07 04:47:06;;;;;;;15.10;11.50;;;2.40;99.90;;;;;;2161150;66;20201;-73
2022/01/07 04:49:42;;;;;;;15.40;11.48;;;2.40;99.90;;;;;;2167907;66;20211;-73
2022/01/07 04:52:21;;;;;;;19.73;10.90;;;2.50;99.90;;;;;;2182113;65;20201;-72
2022/01/07 04:54:57;;;;;;;19.10;12.25;;;2.50;99.90;;;;;;2190827;65;20178;-71
2022/01/07 04:57:39;;;;;;;18.23;12.57;;;2.40;99.90;;;;;;2196476;65;20330;-72
2022/01/07 05:00:23;;;;;;;15.70;11.13;;;2.50;99.90;;;;;;2186444;65;20382;-73
2022/01/07 05:03:06;;;;;;;15.52;11.32;;;2.50;99.90;;;;;;2182386;65;20323;-72
2022/01/07 05:06:01;;;;;;;16.02;9.60;;;2.50;99.90;;;;;;2166396;66;20289;-73
2022/01/07 05:08:44;;;;;;;17.30;12.15;;;2.60;99.90;;;;;;2158561;66;20260;-72
2022/01/07 05:11:26;;;;;;;15.75;11.82;;;2.60;99.90;;;;;;2162908;66;20448;-73
2022/01/07 05:14:08;;;;;;;20.55;12.25;;;2.60;99.90;;;;;;2152083;66;20374;-72
2022/01/07 05:16:53;;;;;;;15.00;11.13;;;2.60;99.90;;;;;;2154055;66;20462;-73
2022/01/07 05:19:36;;;;;;;16.02;10.52;;;2.60;99.90;;;;;;2154577;66;20197;-73
2022/01/07 05:22:17;;;;;;;16.30;9.55;;;2.60;99.90;;;;;;2150464;66;20286;-73
2022/01/07 05:24:59;;;;;;;15.43;9.40;;;2.60;99.90;;;;;;2154711;66;20240;-72
2022/01/07 05:27:42;;;;;;;16.38;9.50;;;2.60;99.90;;;;;;2154332;66;20669;-74
2022/01/07 05:30:26;;;;;;;18.45;10.50;;;2.70;99.90;;;;;;2159961;66;20333;-72
2022/01/07 05:33:11;;;;;;;15.30;11.07;;;2.70;99.90;;;;;;2155838;66;20184;-72
2022/01/07 05:35:54;;;;;;;16.90;10.90;;;2.70;99.90;;;;;;2147834;66;20823;-74
2022/01/07 05:38:41;;;;;;;13.18;9.43;;;2.70;99.90;;;;;;2154013;66;20203;-74
2022/01/07 05:41:23;;;;;;;13.13;9.95;;;2.80;99.90;;;;;;2149492;66;20275;-73
2022/01/07 05:44:06;;;;;;;17.40;10.20;;;3.00;99.90;;;;;;2132435;67;20205;-73
2022/01/07 05:46:48;;;;;;;14.65;8.98;;;2.80;99.90;;;;;;2129862;67;20312;-73
2022/01/07 05:49:32;;;;;;;14.02;10.10;;;2.80;99.90;;;;;;2136749;67;20203;-73
2022/01/07 05:52:14;;;;;;;17.52;10.30;;;2.80;99.90;;;;;;2146924;66;20394;-73
2022/01/07 05:54:56;;;;;;;13.40;9.35;;;2.80;99.90;;;;;;2141354;66;20306;-72
2022/01/07 05:57:43;;;;;;;14.80;9.07;;;2.80;99.90;;;;;;2132394;67;20232;-73
2022/01/07 06:00:30;;;;;;;16.60;9.90;;;2.90;99.90;;;;;;2118517;67;20848;-73
2022/01/07 06:03:13;;;;;;;15.02;9.55;;;2.90;99.90;;;;;;2118953;67;20342;-72
2022/01/07 06:05:58;;;;;;;14.32;10.98;;;2.90;99.90;;;;;;2118517;67;20271;-72
2022/01/07 06:08:39;;;;;;;12.45;9.00;;;2.90;99.90;;;;;;2131794;67;20180;-73
2022/01/07 06:11:21;;;;;;;15.88;9.93;;;2.90;99.90;;;;;;2132582;66;20822;-73
2022/01/07 06:14:03;;;;;;;15.13;9.88;;;3.00;99.90;;;;;;2139043;66;20281;-72
2022/01/07 06:16:45;;;;;;;17.10;11.00;;;3.00;99.90;;;;;;2138904;67;20937;-74
2022/01/07 06:19:27;;;;;;;16.80;10.32;;;3.00;99.90;;;;;;2129997;67;20201;-74
2022/01/07 06:22:09;;;;;;;16.98;10.52;;;3.40;99.90;;;;;;2114644;67;20418;-74
2022/01/07 06:24:54;;;;;;;12.75;10.13;;;3.00;99.90;;;;;;2114646;67;20485;-73
2022/01/07 06:27:38;;;;;;;13.65;9.50;;;3.10;99.90;;;;;;2117959;67;20259;-73
2022/01/07 06:30:20;;;;;;;13.00;9.07;;;3.00;99.90;;;;;;2126252;67;20358;-73
2022/01/07 06:33:02;;;;;;;14.70;8.98;;;3.00;99.90;;;;;;2120334;67;20265;-73
2022/01/07 06:35:45;;;;;;;14.55;10.23;;;3.00;99.90;;;;;;2117742;67;20412;-74
2022/01/07 06:38:29;;;;;;;11.77;8.90;;;3.00;99.90;;;;;;2126033;67;20257;-75
2022/01/07 06:41:11;;;;;;;12.20;9.20;;;3.10;99.90;;;;;;2119801;67;20231;-73
2022/01/07 06:43:53;;;;;;;14.32;9.35;;;3.10;99.90;;;;;;2111232;67;20315;-72
2022/01/07 06:46:35;;;;;;;12.82;8.93;;;3.10;99.90;;;;;;2110594;67;20280;-74
2022/01/07 06:49:18;;;;;;;14.13;9.63;;;3.10;99.90;;;;;;2107548;67;20251;-74
2022/01/07 06:52:02;;;;;;;11.88;8.43;;;3.10;99.90;;;;;;2124686;67;20216;-72
2022/01/07 06:54:44;;;;;;;10.90;8.07;;;3.10;99.90;;;;;;2110027;67;20307;-72
2022/01/07 06:57:27;;;;;;;11.60;8.52;;;3.10;99.90;;;;;;2123327;67;20353;-74
2022/01/07 07:00:13;;;;;;;12.85;10.43;;;3.20;99.90;;;;;;2111278;67;20236;-73
2022/01/07 07:02:55;;;;;;;12.52;8.93;;;3.20;99.90;;;;;;2118823;67;20307;-73
2022/01/07 07:05:40;;;;;;;9.73;8.05;;;3.10;99.90;;;;;;2119304;67;20245;-72
2022/01/07 07:08:23;;;;;;;13.85;9.07;;;3.20;99.90;;;;;;2111976;67;20244;-73
2022/01/07 07:11:07;;;;;;;12.27;8.70;;;3.20;99.90;;;;;;2104760;68;20355;-73
2022/01/07 07:13:51;;;;;;;;;;;3.20;99.90;;;;;;2111942;67;20351;-73
2022/01/07 07:16:35;;;;;;;11.23;9.18;;;3.20;99.90;;;;;;2118079;67;20066;-73
2022/01/07 07:19:17;;;;;;;12.85;9.10;;;3.30;99.90;;;;;;2111104;67;20174;-73
2022/01/07 07:21:59;;;;;;;12.38;10.18;;;3.30;99.90;;;;;;2114051;67;20371;-73
2022/01/07 07:24:42;;;;;;;11.73;9.32;;;3.30;99.90;;;;;;2096851;68;20343;-73
2022/01/07 07:27:27;;;;;;;15.73;10.80;;;3.30;99.90;;;;;;2083933;68;20350;-73
2022/01/07 07:30:14;;;;;;;14.50;10.35;;;3.40;99.90;;;;;;2095061;68;20312;-73
2022/01/07 07:33:17;;;;;;;15.77;10.38;;;3.40;99.90;;;;;;2090152;68;20228;-72
2022/01/07 07:39:08;;;;;;;14.80;11.52;;;3.50;99.90;;;;;;2093966;68;20335;-74
2022/01/07 07:41:52;;;;;;;17.02;11.07;;;4.10;99.90;;;;;;2089736;68;20237;-73
2022/01/07 07:44:40;;;;;;;13.05;9.93;;;3.40;99.90;;;;;;2089620;68;20394;-73
2022/01/07 07:47:25;;;;;;;14.40;11.10;;;3.60;99.90;;;;;;2115721;67;20565;-73
2022/01/07 07:50:11;;;;;;;14.35;11.57;;;3.50;99.90;;;;;;2117459;67;20243;-72
2022/01/07 07:52:56;;;;;;;16.85;10.85;;;3.50;99.90;;;;;;2126840;67;20263;-71
2022/01/07 07:55:39;;;;;;;18.80;11.77;;;3.60;99.90;;;;;;2139314;66;20167;-74
2022/01/07 07:58:22;;;;;;;17.13;12.43;;;4.30;99.90;;;;;;2129959;67;20177;-74
2022/01/07 08:01:03;;;;;;;17.00;11.80;;;3.60;99.90;;;;;;2124518;67;20248;-73
2022/01/07 08:03:46;;;;;;;19.63;12.50;;;3.60;99.90;;;;;;2130445;67;20214;-72
2022/01/07 08:06:30;;;;;;;18.80;12.55;;;3.70;99.90;;;;;;2137768;67;20347;-73
2022/01/07 08:09:15;;;;;;;17.75;11.68;;;4.20;99.90;;;;;;2130598;67;20229;-73
2022/01/07 08:12:05;;;;;;;19.17;12.27;;;3.70;99.90;;;;;;2130362;67;20265;-74
2022/01/07 08:17:47;;;;;;;20.45;12.95;;;4.00;99.90;;;;;;2131838;67;20188;-73
2022/01/07 08:20:29;;;;;;;22.45;12.77;;;3.90;99.90;;;;;;2121782;67;20192;-72
2022/01/07 08:23:11;;;;;;;20.13;12.43;;;3.80;99.90;;;;;;2117753;67;20295;-72
2022/01/07 08:25:53;;;;;;;19.08;12.55;;;3.90;99.90;;;;;;2126129;67;20216;-72
2022/01/07 08:28:50;;;;;;;17.00;12.48;;;3.90;99.90;;;;;;2116174;67;20842;-76
2022/01/07 08:37:14;;;;;;;21.80;14.63;;;4.00;99.90;;;;;;2129676;67;20223;-73
2022/01/07 08:39:56;;;;;;;20.63;11.88;;;4.40;99.90;;;;;;2137601;66;20246;-74
2022/01/07 08:42:41;;;;;;;19.33;14.13;;;4.30;99.90;;;;;;2124264;67;20473;-75
2022/01/07 08:45:27;;;;;;;22.52;15.80;;;4.10;99.90;;;;;;2106927;67;20190;-75
2022/01/07 08:48:09;;;;;;;20.38;13.57;;;4.10;99.90;;;;;;2102747;67;20596;-75
2022/01/07 08:50:52;;;;;;;27.23;15.52;;;4.40;99.90;;;;;;2116597;67;20369;-75
2022/01/07 08:53:35;;;;;;;26.52;15.80;;;4.20;99.90;;;;;;2123304;67;21365;-74
2022/01/07 08:56:18;;;;;;;22.67;14.10;;;4.20;99.90;;;;;;2124164;67;20409;-75
2022/01/07 08:59:00;;;;;;;23.23;13.52;;;4.20;99.90;;;;;;2123979;67;20235;-73
2022/01/07 09:01:42;;;;;;;22.73;14.43;;;4.30;99.90;;;;;;2129479;67;20313;-76
2022/01/07 09:04:25;;;;;;;24.08;14.10;;;4.30;99.90;;;;;;2118679;67;20181;-74
2022/01/07 09:07:08;;;;;;;30.70;14.23;;;4.30;99.90;;;;;;2117305;67;20204;-73
2022/01/07 09:09:52;;;;;;;20.35;14.38;;;4.30;99.90;;;;;;2118758;67;20317;-73
2022/01/07 09:12:36;;;;;;;20.88;14.10;;;4.40;99.90;;;;;;2115974;67;20720;-75
2022/01/07 09:15:21;;;;;;;24.33;15.82;;;4.40;99.90;;;;;;2126881;67;20418;-72
2022/01/07 09:18:10;;;;;;;24.30;14.65;;;4.40;99.90;;;;;;2131939;67;20183;-73
2022/01/07 09:20:54;;;;;;;25.40;13.48;;;4.50;99.90;;;;;;2133011;67;20692;-77
2022/01/07 09:23:40;;;;;;;22.17;14.50;;;4.60;99.90;;;;;;2118184;67;20428;-76
2022/01/07 09:26:22;;;;;;;18.60;14.05;;;4.60;99.90;;;;;;2116317;67;20209;-77
2022/01/07 09:29:04;;;;;;;19.65;14.52;;;4.60;99.90;;;;;;2129921;67;20728;-78
2022/01/07 09:31:46;;;;;;;23.65;15.80;;;4.60;99.90;;;;;;2125061;67;20255;-77
2022/01/07 09:34:30;;;;;;;24.35;15.35;;;4.70;99.90;;;;;;2133936;66;20316;-77
2022/01/07 09:37:15;;;;;;;19.45;13.90;;;4.70;99.90;;;;;;2138879;66;20731;-76
2022/01/07 09:40:00;;;;;;;24.98;15.63;;;4.70;99.90;;;;;;2137998;66;20163;-75
2022/01/07 09:43:14;;;;;;;25.25;14.23;;;4.70;99.90;;;;;;2124953;67;20268;-79
2022/01/07 09:45:56;;;;;;;28.92;14.90;;;5.40;99.90;;;;;;2137963;66;20178;-75
2022/01/07 09:48:40;;;;;;;22.45;13.80;;;4.80;99.90;;;;;;2127099;67;20205;-77
2022/01/07 09:51:22;;;;;;;24.13;15.30;;;4.80;99.90;;;;;;2132399;67;20351;-77
2022/01/07 09:54:08;;;;;;;28.40;14.63;;;4.80;99.90;;;;;;2133625;67;20449;-74
2022/01/07 09:56:53;;;;;;;24.25;14.65;;;4.80;99.90;;;;;;2130497;67;20179;-75
2022/01/07 09:59:37;;;;;;;26.77;14.20;;;4.70;99.90;;;;;;2139250;66;20332;-75
2022/01/07 10:02:23;;;;;;;20.50;13.70;;;4.80;99.90;;;;;;2125331;67;20262;-76
2022/01/07 10:05:18;;;;;;;23.58;11.63;;;5.00;99.90;;;;;;2124930;67;20184;-76
2022/01/07 10:08:20;;;;;;;18.33;11.38;;;4.80;99.90;;;;;;2110441;67;20202;-74
2022/01/07 10:11:28;;;;;;;15.95;11.02;;;4.80;99.90;;;;;;2108013;67;20186;-79
2022/01/07 10:14:18;;;;;;;15.98;8.80;;;4.80;99.90;;;;;;2124084;67;20288;-76
2022/01/07 10:17:02;;;;;;;13.30;7.93;;;4.80;99.90;;;;;;2128788;67;20171;-76
2022/01/07 10:19:49;;;;;;;7.20;4.68;;;4.80;99.90;;;;;;2122057;67;20321;-77
2022/01/07 10:22:48;;;;;;;6.05;3.10;;;4.70;99.90;;;;;;2132913;67;20200;-75
2022/01/07 10:25:32;;;;;;;2.42;1.83;;;4.80;99.90;;;;;;2137723;66;20228;-76
2022/01/07 10:28:19;;;;;;;6.10;2.42;;;4.80;99.90;;;;;;2126113;67;20172;-74
2022/01/07 10:31:03;;;;;;;4.35;2.85;;;4.70;99.90;;;;;;2122878;67;20586;-74
2022/01/07 10:33:48;;;;;;;3.22;2.78;;;4.50;99.90;;;;;;2123647;67;20407;-78
2022/01/07 10:36:41;;;;;;;4.53;2.88;;;4.50;99.90;;;;;;2119349;67;20220;-79
2022/01/07 10:39:32;;;;;;;4.65;2.70;;;4.70;99.90;;;;;;2128872;67;20200;-73
2022/01/07 10:42:24;;;;;;;7.07;3.78;;;4.50;99.90;;;;;;2120979;67;20322;-74
2022/01/07 10:45:13;;;;;;;6.63;2.65;;;4.50;99.90;;;;;;2112514;67;20486;-76
2022/01/07 10:47:58;;;;;;;3.55;2.58;;;4.70;99.90;;;;;;2124158;67;20634;-76
2022/01/07 10:50:44;;;;;;;;;;;4.80;99.90;;;;;;2123475;67;20262;-73
2022/01/07 10:53:50;;;;;;;3.80;2.20;;;4.90;99.90;;;;;;2126358;67;20333;-75
2022/01/07 10:56:31;;;;;;;3.95;2.13;;;4.90;99.90;;;;;;2118165;67;20316;-74
2022/01/07 10:59:18;;;;;;;3.33;2.22;;;4.80;99.90;;;;;;2124337;67;20282;-74
2022/01/07 11:02:05;;;;;;;4.57;2.20;;;5.10;99.90;;;;;;2124722;67;20880;-76
2022/01/07 11:04:48;;;;;;;4.03;2.42;;;4.60;99.90;;;;;;2110673;67;20646;-73
2022/01/07 11:07:30;;;;;;;3.33;1.90;;;4.60;99.90;;;;;;2108038;67;20279;-75
2022/01/07 11:10:14;;;;;;;3.28;1.40;;;4.70;99.90;;;;;;2110749;67;20197;-75
2022/01/07 11:13:00;;;;;;;7.53;1.88;;;4.70;99.90;;;;;;2117770;67;20874;-75
2022/01/07 11:15:43;;;;;;;4.15;1.90;;;5.10;99.90;;;;;;2115556;67;20231;-75
2022/01/07 11:18:31;;;;;;;3.65;1.58;;;4.80;99.90;;;;;;2115001;67;20340;-74
2022/01/07 11:21:12;;;;;;;2.92;1.70;;;4.80;99.90;;;;;;2126203;67;20755;-73
2022/01/07 11:23:54;;;;;;;4.57;1.98;;;4.80;99.90;;;;;;2127952;67;20195;-73
2022/01/07 11:26:59;;;;;;;2.20;1.45;;;4.80;99.90;;;;;;2125932;67;20428;-72
2022/01/07 11:30:04;;;;;;;3.95;2.30;;;4.80;99.90;;;;;;2132135;67;20769;-74
2022/01/07 11:32:50;;;;;;;4.20;2.20;;;5.20;99.90;;;;;;2120053;67;20363;-74
2022/01/07 11:35:31;;;;;;;5.35;2.75;;;5.50;99.90;;;;;;2115786;67;20385;-75
2022/01/07 11:38:33;;;;;;;5.25;3.03;;;5.90;99.90;;;;;;2118363;67;20228;-76
2022/01/07 11:41:50;;;;;;;7.00;4.05;;;6.30;99.90;;;;;;2117651;67;20201;-74
2022/01/07 11:44:35;;;;;;;7.25;3.30;;;6.50;99.90;;;;;;2127057;67;20203;-74
2022/01/07 11:47:24;;;;;;;6.78;4.38;;;6.70;99.90;;;;;;2128066;67;20177;-75
2022/01/07 11:50:02;;;;;;;7.70;4.13;;;6.80;99.90;;;;;;2112873;67;20190;-73
2022/01/07 11:52:38;;;;;;;9.50;4.68;;;6.80;99.90;;;;;;2108081;67;20189;-75
2022/01/07 11:55:31;;;;;;;8.40;4.50;;;6.80;99.90;;;;;;2123295;67;20192;-75
2022/01/07 11:58:12;;;;;;;9.98;5.00;;;6.90;99.90;;;;;;2136710;66;20167;-73
2022/01/07 12:01:03;;;;;;;6.30;4.55;;;6.90;99.90;;;;;;2139020;66;20220;-74
2022/01/07 12:03:39;;;;;;;8.50;5.47;;;6.90;99.90;;;;;;2138558;66;20182;-74
2022/01/07 12:06:25;;;;;;;6.35;5.13;;;7.10;99.90;;;;;;2141475;66;20321;-76
2022/01/07 12:09:20;;;;;;;7.28;5.63;;;7.50;99.90;;;;;;2159101;65;20297;-76
2022/01/07 12:12:10;;;;;;;10.18;5.22;;;7.00;99.90;;;;;;2214060;64;20235;-76
2022/01/07 12:14:55;;;;;;;9.15;5.80;;;6.40;99.90;;;;;;2226011;64;20389;-76
2022/01/07 12:17:48;;;;;;;14.43;6.10;;;6.50;99.90;;;;;;2232138;63;20707;-78
2022/01/07 12:20:53;;;;;;;12.32;6.70;;;6.70;99.90;;;;;;2233837;63;20252;-74
2022/01/07 12:23:30;;;;;;;10.52;6.10;;;6.40;99.90;;;;;;2231840;63;20179;-76
2022/01/07 12:26:07;;;;;;;15.75;7.38;;;6.30;99.90;;;;;;2234657;63;20332;-74
2022/01/07 12:28:48;;;;;;;11.98;7.32;;;6.30;99.90;;;;;;2237969;63;20190;-77
2022/01/07 12:31:51;;;;;;;13.18;7.30;;;6.40;99.90;;;;;;2222510;64;20304;-75
2022/01/07 12:34:33;;;;;;;9.95;6.40;;;6.30;99.90;;;;;;2218538;64;20191;-75
2022/01/07 12:37:13;;;;;;;9.48;6.20;;;6.40;99.90;;;;;;2219195;64;20193;-76
2022/01/07 12:39:55;;;;;;;11.02;6.72;;;6.40;99.90;;;;;;2218024;64;20424;-73
2022/01/07 12:42:41;;;;;;;9.43;6.05;;;6.60;99.90;;;;;;2220635;64;20195;-72
2022/01/07 12:45:34;;;;;;;10.32;4.95;;;6.80;99.90;;;;;;2206812;64;20337;-73
2022/01/07 12:48:16;;;;;;;6.18;4.80;;;7.10;99.90;;;;;;2191573;65;20267;-76
2022/01/07 12:51:06;;;;;;;6.10;3.65;;;7.40;99.90;;;;;;2180825;65;20407;-77
2022/01/07 12:54:13;;;;;;;6.35;3.92;;;7.70;99.90;;;;;;2180195;65;20323;-76
2022/01/07 12:56:56;;;;;;;6.65;3.30;;;7.90;99.90;;;;;;2170193;65;20180;-75
2022/01/07 12:59:38;;;;;;;5.15;3.25;;;8.00;99.90;;;;;;2171888;65;20205;-76
2022/01/07 13:02:28;;;;;;;7.07;2.83;;;8.20;99.90;;;;;;2169839;65;20717;-79
2022/01/07 13:05:14;;;;;;;7.70;2.72;;;8.40;99.90;;;;;;2170338;65;21048;-77
2022/01/07 13:08:12;;;;;;;7.05;3.92;;;8.40;99.90;;;;;;2163982;66;20279;-75
2022/01/07 13:11:00;;;;;;;5.07;3.35;;;8.30;99.90;;;;;;2162217;66;20305;-77
2022/01/07 13:13:45;;;;;;;8.88;3.20;;;7.90;99.90;;;;;;2162716;66;20226;-76
2022/01/07 13:16:28;;;;;;;7.35;3.63;;;7.40;99.90;;;;;;2146969;66;20395;-76
2022/01/07 13:19:14;;;;;;;7.45;3.40;;;7.40;99.90;;;;;;2128114;67;20272;-77
2022/01/07 13:21:59;;;;;;;7.75;3.35;;;7.10;99.90;;;;;;2130112;67;20339;-76
2022/01/07 13:24:41;;;;;;;7.38;2.40;;;6.90;99.90;;;;;;2124465;67;20324;-77
2022/01/07 13:27:26;;;;;;;7.15;2.30;;;6.60;99.90;;;;;;2121835;67;20361;-76
2022/01/07 13:30:12;;;;;;;7.50;2.13;;;6.40;99.90;;;;;;2130234;67;20251;-77
2022/01/07 13:33:11;;;;;;;4.30;2.38;;;7.10;99.90;;;;;;2121061;67;20177;-76
2022/01/07 13:36:02;;;;;;;6.30;1.90;;;6.60;99.90;;;;;;2127616;67;20689;-76
2022/01/07 13:38:55;;;;;;;5.65;2.00;;;6.70;99.90;;;;;;2116549;67;20237;-76
2022/01/07 13:41:59;;;;;;;6.00;1.63;;;6.80;99.90;;;;;;2119325;67;20258;-77
2022/01/07 13:44:56;;;;;;;4.65;3.15;;;6.80;99.90;;;;;;2118505;67;20257;-76
2022/01/07 13:47:44;;;;;;;4.25;2.67;;;6.70;99.90;;;;;;2127466;67;20375;-77
2022/01/07 13:50:34;;;;;;;6.30;2.83;;;6.70;99.90;;;;;;2151181;66;20196;-76
2022/01/07 13:53:20;;;;;;;7.75;3.30;;;7.40;99.90;;;;;;2151799;66;20722;-75
2022/01/07 13:56:10;;;;;;;7.45;1.98;;;6.70;99.90;;;;;;2144327;66;20777;-78
2022/01/07 13:58:59;;;;;;;5.47;2.00;;;6.70;99.90;;;;;;2147840;66;20319;-76
2022/01/07 14:02:27;;;;;;;6.70;2.55;;;6.30;99.90;;;;;;2146821;66;20210;-75
2022/01/07 14:05:12;;;;;;;5.00;2.42;;;6.20;99.90;;;;;;2154250;66;20305;-78
2022/01/07 14:07:55;;;;;;;7.20;2.40;;;5.90;99.90;;;;;;2156333;66;20290;-78
2022/01/07 14:10:39;;;;;;;4.28;1.70;;;5.80;99.90;;;;;;2161993;66;20637;-75
2022/01/07 14:13:23;;;;;;;5.03;2.22;;;5.60;99.90;;;;;;2158308;66;20318;-77
2022/01/07 14:16:06;;;;;;;7.53;2.53;;;5.70;99.90;;;;;;2136463;66;20337;-76
2022/01/07 14:19:17;;;;;;;7.03;2.05;;;5.50;99.90;;;;;;2130396;67;20809;-78
2022/01/07 14:21:57;;;;;;;4.82;2.40;;;5.50;99.90;;;;;;2125408;67;20260;-78
2022/01/07 14:24:34;;;;;;;5.43;2.40;;;5.50;99.90;;;;;;2124980;67;20239;-75
2022/01/07 14:27:27;;;;;;;8.30;2.63;;;5.50;99.90;;;;;;2128930;67;20698;-76
2022/01/07 14:30:17;;;;;;;6.38;2.63;;;5.40;99.90;;;;;;2133909;67;20187;-78